Time;durP1;ratioP1;P1;durP2;ratioP2;P2;SDS_P1;SDS_P2;PMS_P1;PMS_P2;Temp;Humidity;BMP_temperature;BMP_pressure;BME280_temperature;BME280_humidity;BME280_pressure;Samples;Min_cycle;Max_cycle;Signal;HPM_P1;HPM_P2
2021/06/21 00:00:34;;;;;;;;;;;;;;;17.78;64.70;100620.56;5094965;28;861;-58
2021/06/21 00:02:59;;;;;;;;;;;;;;;18.17;64.06;100613.91;5094775;28;949;-60
2021/06/21 00:05:24;;;;;;;;;;;;;;;18.22;63.93;100605.38;5095024;28;1952;-59
2021/06/21 00:07:49;;;;;;;;;;;;;;;18.28;63.71;100605.56;5095234;28;1040;-59
2021/06/21 00:10:14;;;;;;;;;;;;;;;17.91;64.14;100607.59;5095087;28;1056;-59
2021/06/21 00:12:41;;;;;;;;;;;;;;;18.08;63.54;100600.53;5094971;28;1977;-59
2021/06/21 00:15:06;;;;;;;;;;;;;;;17.46;64.77;100619.16;5095100;28;879;-59
2021/06/21 00:17:31;;;;;;;;;;;;;;;17.94;63.35;100613.50;5095277;28;840;-59
2021/06/21 00:19:56;;;;;;;;;;;;;;;17.27;64.59;100620.09;5094776;28;1704;-60
2021/06/21 00:22:21;;;;;;;;;;;;;;;17.31;64.43;100624.19;5095096;28;897;-60
2021/06/21 00:24:46;;;;;;;;;;;;;;;17.35;64.57;100611.28;5094469;28;1993;-60
2021/06/21 00:27:11;;;;;;;;;;;;;;;17.05;65.62;100616.91;5094486;28;1044;-59
2021/06/21 00:29:37;;;;;;;;;;;;;;;17.35;64.56;100598.66;5095109;28;1741;-59
2021/06/21 00:32:02;;;;;;;;;;;;;;;17.18;64.58;100609.38;5094846;28;869;-59
2021/06/21 00:34:27;;;;;;;;;;;;;;;17.05;65.70;100603.44;5094970;28;1071;-59
2021/06/21 00:36:52;;;;;;;;;;;;;;;17.55;63.83;100588.63;5094900;28;968;-59
2021/06/21 00:39:17;;;;;;;;;;;;;;;17.72;63.40;100595.09;5095064;28;1480;-59
2021/06/21 00:41:42;;;;;;;;;;;;;;;17.69;63.11;100608.88;5094778;28;877;-60
2021/06/21 00:44:08;;;;;;;;;;;;;;;17.60;63.45;100599.78;5094448;28;1959;-60
2021/06/21 00:46:33;;;;;;;;;;;;;;;17.55;63.84;100604.81;5094558;28;866;-60
2021/06/21 00:48:59;;;;;;;;;;;;;;;17.74;63.21;100597.59;5094851;28;992;-60
2021/06/21 00:51:24;;;;;;;;;;;;;;;18.01;62.39;100594.88;5076604;28;930;-60
2021/06/21 00:53:49;;;;;;;;;;;;;;;17.91;62.78;100592.28;5075988;28;1964;-59
2021/06/21 00:56:14;;;;;;;;;;;;;;;18.19;61.80;100593.03;5093481;28;2429;-59
2021/06/21 00:58:39;;;;;;;;;;;;;;;18.19;61.72;100584.94;5094742;28;1063;-60
2021/06/21 01:01:04;;;;;;;;;;;;;;;17.49;64.18;100589.22;5094382;28;854;-60
2021/06/21 01:03:29;;;;;;;;;;;;;;;17.64;63.50;100586.91;5094037;28;1963;-59
2021/06/21 01:05:54;;;;;;;;;;;;;;;17.83;62.64;100602.94;5094193;28;1982;-60
2021/06/21 01:08:20;;;;;;;;;;;;;;;17.83;62.64;100594.88;5094395;28;814;-59
2021/06/21 01:10:45;;;;;;;;;;;;;;;17.82;63.36;100589.63;5093914;28;2073;-59
2021/06/21 01:13:10;;;;;;;;;;;;;;;17.51;63.79;100589.94;5094087;28;1147;-59
2021/06/21 01:15:35;;;;;;;;;;;;;;;17.94;62.65;100581.16;5097333;28;1013;-59
2021/06/21 01:18:00;;;;;;;;;;;;;;;17.88;62.23;100586.31;5098645;28;1484;-59
2021/06/21 01:20:25;;;;;;;;;;;;;;;17.24;64.88;100581.84;5098206;28;797;-59
2021/06/21 01:22:50;;;;;;;;;;;;;;;17.65;63.84;100581.38;5097987;28;1887;-59
2021/06/21 01:25:15;;;;;;;;;;;;;;;18.16;62.24;100574.44;5097976;28;1975;-59
2021/06/21 01:27:40;;;;;;;;;;;;;;;17.66;63.89;100584.91;5098158;28;893;-60
2021/06/21 01:30:05;;;;;;;;;;;;;;;18.01;62.66;100576.00;5097546;28;992;-60
2021/06/21 01:32:30;;;;;;;;;;;;;;;17.30;63.99;100579.41;5097535;28;1195;-59
2021/06/21 01:34:55;;;;;;;;;;;;;;;17.31;64.12;100586.50;5096709;28;1063;-59
2021/06/21 01:37:21;;;;;;;;;;;;;;;17.60;63.00;100583.63;5097935;28;920;-60
2021/06/21 01:39:46;;;;;;;;;;;;;;;17.62;63.22;100581.63;5098102;28;824;-60
2021/06/21 01:42:11;;;;;;;;;;;;;;;17.53;63.57;100577.16;5097587;28;996;-60
2021/06/21 01:44:36;;;;;;;;;;;;;;;18.02;61.80;100575.00;5097539;28;1979;-60
2021/06/21 01:47:01;;;;;;;;;;;;;;;18.17;61.60;100570.75;5097829;28;921;-59
2021/06/21 01:49:26;;;;;;;;;;;;;;;17.94;62.11;100575.75;5097132;28;854;-59
2021/06/21 01:51:51;;;;;;;;;;;;;;;18.28;61.27;100581.28;5097186;28;1914;-58
2021/06/21 01:54:16;;;;;;;;;;;;;;;17.90;62.27;100573.53;5097411;28;1620;-58
2021/06/21 01:56:41;;;;;;;;;;;;;;;17.57;63.06;100575.84;5097709;28;925;-59
2021/06/21 01:59:06;;;;;;;;;;;;;;;17.95;61.73;100566.66;5096921;28;1907;-59
2021/06/21 02:01:31;;;;;;;;;;;;;;;17.63;63.15;100582.47;5096469;28;1972;-59
2021/06/21 02:03:56;;;;;;;;;;;;;;;17.64;62.91;100576.13;5096840;28;1952;-58
2021/06/21 02:06:22;;;;;;;;;;;;;;;17.52;63.00;100580.84;5097497;28;992;-58
2021/06/21 02:08:47;;;;;;;;;;;;;;;17.97;61.96;100580.00;5097141;28;814;-59
2021/06/21 02:11:12;;;;;;;;;;;;;;;18.04;61.37;100583.78;5097506;28;1858;-59
2021/06/21 02:13:37;;;;;;;;;;;;;;;17.96;61.43;100581.00;5097300;28;1372;-59
2021/06/21 02:16:02;;;;;;;;;;;;;;;18.31;61.07;100585.53;5096852;28;822;-59
2021/06/21 02:18:27;;;;;;;;;;;;;;;18.28;61.23;100578.59;5097105;28;1040;-59
2021/06/21 02:20:52;;;;;;;;;;;;;;;17.95;61.64;100573.91;5096560;28;1908;-58
2021/06/21 02:23:17;;;;;;;;;;;;;;;17.53;62.76;100587.94;5097101;28;794;-59
2021/06/21 02:25:43;;;;;;;;;;;;;;;17.24;64.03;100587.22;5096345;28;1913;-57
2021/06/21 02:28:08;;;;;;;;;;;;;;;17.73;62.52;100571.69;5096447;28;1873;-58
2021/06/21 02:30:34;;;;;;;;;;;;;;;17.80;61.71;100583.53;5096610;28;1008;-58
2021/06/21 02:32:59;;;;;;;;;;;;;;;18.05;61.82;100582.78;5096735;28;802;-59
2021/06/21 02:35:24;;;;;;;;;;;;;;;17.55;63.28;100588.63;5097034;28;925;-59
2021/06/21 02:37:49;;;;;;;;;;;;;;;17.45;63.81;100585.13;5096734;28;1052;-58
2021/06/21 02:40:14;;;;;;;;;;;;;;;17.80;62.40;100580.84;5096172;28;1987;-59
2021/06/21 02:42:40;;;;;;;;;;;;;;;17.63;63.14;100575.25;5096321;28;853;-58
2021/06/21 02:45:05;;;;;;;;;;;;;;;17.80;62.49;100576.28;5096489;28;1890;-59
2021/06/21 02:47:30;;;;;;;;;;;;;;;17.96;62.24;100581.00;5078245;28;1873;-58
2021/06/21 02:49:55;;;;;;;;;;;;;;;17.84;62.86;100582.22;5096454;28;872;-57
2021/06/21 02:52:20;;;;;;;;;;;;;;;17.83;63.10;100577.84;5096744;28;1016;-59
2021/06/21 02:54:45;;;;;;;;;;;;;;;17.55;63.96;100585.09;5096174;28;1198;-58
2021/06/21 02:57:10;;;;;;;;;;;;;;;17.44;64.57;100580.75;5096459;28;1001;-59
2021/06/21 02:59:35;;;;;;;;;;;;;;;17.18;65.04;100574.38;5096219;28;2058;-59
2021/06/21 03:02:01;;;;;;;;;;;;;;;16.88;66.36;100576.31;5096300;28;880;-59
2021/06/21 03:04:26;;;;;;;;;;;;;;;17.21;64.85;100574.03;5096125;28;1898;-59
2021/06/21 03:06:51;;;;;;;;;;;;;;;17.31;64.46;100573.03;5096082;28;1817;-58
2021/06/21 03:09:16;;;;;;;;;;;;;;;17.12;65.59;100572.25;5095960;28;1860;-58
2021/06/21 03:11:41;;;;;;;;;;;;;;;17.07;65.63;100572.69;5095841;28;1690;-58
2021/06/21 03:14:06;;;;;;;;;;;;;;;17.84;63.65;100557.97;5077408;28;901;-58
2021/06/21 03:16:31;;;;;;;;;;;;;;;18.21;62.23;100564.06;5095508;28;797;-58
2021/06/21 03:18:56;;;;;;;;;;;;;;;17.54;64.20;100561.84;5095094;28;1648;-59
2021/06/21 03:21:21;;;;;;;;;;;;;;;17.29;65.06;100552.63;5096172;28;1168;-59
2021/06/21 03:23:46;;;;;;;;;;;;;;;17.28;65.05;100564.38;5095651;28;936;-59
2021/06/21 03:26:11;;;;;;;;;;;;;;;17.41;64.99;100550.56;5095223;28;1902;-59
2021/06/21 03:28:37;;;;;;;;;;;;;;;18.06;62.98;100543.19;5095224;28;896;-59
2021/06/21 03:31:02;;;;;;;;;;;;;;;18.09;62.84;100545.59;5095209;28;889;-59
2021/06/21 03:33:27;;;;;;;;;;;;;;;18.45;61.93;100552.59;5095142;28;1000;-59
2021/06/21 03:35:52;;;;;;;;;;;;;;;18.50;61.73;100565.63;5095099;28;783;-59
2021/06/21 03:38:19;;;;;;;;;;;;;;;18.47;62.10;100561.38;5094264;28;1810;-59
2021/06/21 03:40:45;;;;;;;;;;;;;;;18.20;62.84;100553.41;5095373;28;814;-59
2021/06/21 03:43:10;;;;;;;;;;;;;;;18.33;62.15;100543.06;5095332;28;841;-59
2021/06/21 03:45:35;;;;;;;;;;;;;;;18.26;62.13;100545.56;5094848;28;1941;-59
2021/06/21 03:48:00;;;;;;;;;;;;;;;18.25;62.07;100545.72;5094962;28;904;-59
2021/06/21 03:50:25;;;;;;;;;;;;;;;18.15;62.44;100537.69;5094807;28;825;-60
2021/06/21 03:52:50;;;;;;;;;;;;;;;18.27;62.38;100543.72;5095052;28;1566;-59
2021/06/21 03:55:15;;;;;;;;;;;;;;;17.82;63.25;100543.78;5095155;28;854;-59
2021/06/21 03:57:41;;;;;;;;;;;;;;;17.54;64.03;100534.91;5095470;28;1043;-59
2021/06/21 04:00:06;;;;;;;;;;;;;;;17.54;64.20;100530.34;5095215;28;897;-60
2021/06/21 04:02:31;;;;;;;;;;;;;;;17.84;63.42;100533.72;5095278;28;811;-60
2021/06/21 04:04:56;;;;;;;;;;;;;;;18.01;62.40;100532.84;5095340;28;1886;-59
2021/06/21 04:07:21;;;;;;;;;;;;;;;17.71;63.73;100546.72;5094768;28;960;-59
2021/06/21 04:09:46;;;;;;;;;;;;;;;17.92;63.05;100539.16;5094588;28;2013;-59
2021/06/21 04:12:11;;;;;;;;;;;;;;;17.81;63.10;100531.31;5094822;28;2011;-59
2021/06/21 04:14:36;;;;;;;;;;;;;;;18.02;62.95;100523.78;5095375;28;873;-59
2021/06/21 04:17:02;;;;;;;;;;;;;;;17.81;63.42;100515.16;5095044;28;917;-57
2021/06/21 04:19:27;;;;;;;;;;;;;;;17.88;62.98;100510.84;5095088;28;864;-58
2021/06/21 04:21:52;;;;;;;;;;;;;;;17.77;63.11;100508.34;5094713;28;924;-58
2021/06/21 04:24:17;;;;;;;;;;;;;;;17.80;63.21;100513.44;5094627;28;1914;-58
2021/06/21 04:26:42;;;;;;;;;;;;;;;18.08;62.72;100508.81;5095273;28;868;-57
2021/06/21 04:29:07;;;;;;;;;;;;;;;17.78;63.02;100502.81;5093283;28;1795;-58
2021/06/21 04:31:33;;;;;;;;;;;;;;;17.98;62.86;100500.81;5094811;28;1060;-59
2021/06/21 04:33:58;;;;;;;;;;;;;;;18.07;62.29;100513.38;5095151;28;709;-58
2021/06/21 04:36:23;;;;;;;;;;;;;;;17.74;63.70;100504.13;5094701;28;1577;-58
2021/06/21 04:38:48;;;;;;;;;;;;;;;17.94;62.19;100515.59;5094989;28;882;-58
2021/06/21 04:41:13;;;;;;;;;;;;;;;17.69;63.28;100517.22;5094722;28;850;-58
2021/06/21 04:43:38;;;;;;;;;;;;;;;17.52;63.83;100510.81;5094811;28;1064;-59
2021/06/21 04:46:03;;;;;;;;;;;;;;;17.44;63.97;100524.16;5094295;28;1893;-59
2021/06/21 04:48:28;;;;;;;;;;;;;;;16.86;68.83;100512.84;5094964;28;1681;-59
2021/06/21 04:50:54;;;;;;;;;;;;;;;17.11;68.91;100509.47;5097597;28;1608;-59
2021/06/21 04:53:19;;;;;;;;;;;;;;;17.59;66.85;100508.31;5098026;28;1510;-59
2021/06/21 04:55:44;;;;;;;;;;;;;;;17.79;66.12;100501.81;5097998;28;1707;-58
2021/06/21 04:58:09;;;;;;;;;;;;;;;17.22;66.55;100503.03;5098393;28;1662;-58
2021/06/21 05:00:34;;;;;;;;;;;;;;;17.54;65.57;100497.19;5098111;28;1674;-59
2021/06/21 05:02:59;;;;;;;;;;;;;;;17.87;64.06;100503.75;5098382;28;1882;-56
2021/06/21 05:05:24;;;;;;;;;;;;;;;17.89;64.34;100499.06;5097568;28;1958;-57
2021/06/21 05:07:49;;;;;;;;;;;;;;;17.30;65.78;100495.91;5098175;28;948;-58
2021/06/21 05:10:15;;;;;;;;;;;;;;;17.02;66.39;100496.09;5097878;28;1722;-56
2021/06/21 05:12:41;;;;;;;;;;;;;;;17.04;65.71;100499.44;5097912;28;1522;-57
2021/06/21 05:15:06;;;;;;;;;;;;;;;16.67;66.82;100498.47;5098605;28;853;-57
2021/06/21 05:17:31;;;;;;;;;;;;;;;16.45;67.70;100497.97;5097762;28;1560;-57
2021/06/21 05:19:56;;;;;;;;;;;;;;;16.98;66.49;100491.00;5097886;28;849;-55
2021/06/21 05:22:21;;;;;;;;;;;;;;;17.29;65.49;100487.97;5098004;28;1004;-58
2021/06/21 05:24:46;;;;;;;;;;;;;;;17.23;65.69;100489.41;5097642;28;1966;-57
2021/06/21 05:27:11;;;;;;;;;;;;;;;17.17;65.67;100489.19;5097415;28;1625;-56
2021/06/21 05:29:36;;;;;;;;;;;;;;;17.59;64.08;100484.06;5097415;28;1538;-56
2021/06/21 05:32:01;;;;;;;;;;;;;;;17.31;64.85;100475.22;5097023;28;2090;-58
2021/06/21 05:34:26;;;;;;;;;;;;;;;16.29;67.82;100499.44;5097134;28;1872;-58
2021/06/21 05:36:52;;;;;;;;;;;;;;;16.30;68.75;100494.91;5096929;28;1620;-58
2021/06/21 05:39:17;;;;;;;;;;;;;;;16.38;67.95;100492.31;5097240;28;1628;-59
2021/06/21 05:41:42;;;;;;;;;;;;;;;16.43;67.86;100489.19;5097309;28;1498;-58
2021/06/21 05:44:07;;;;;;;;;;;;;;;16.27;68.63;100489.81;5097019;28;1963;-58
2021/06/21 05:46:32;;;;;;;;;;;;;;;16.32;68.08;100491.03;5096973;28;1705;-56
2021/06/21 05:48:57;;;;;;;;;;;;;;;17.05;65.69;100491.22;5097140;28;1541;-59
2021/06/21 05:51:22;;;;;;;;;;;;;;;16.98;65.57;100498.22;5078334;28;1625;-59
2021/06/21 05:53:47;;;;;;;;;;;;;;;16.23;68.77;100499.16;5095854;28;1629;-59
2021/06/21 05:56:14;;;;;;;;;;;;;;;16.30;68.42;100500.28;5097122;28;1629;-59
2021/06/21 05:58:39;;;;;;;;;;;;;;;16.59;67.40;100500.19;5096518;28;1623;-58
2021/06/21 06:01:04;;;;;;;;;;;;;;;17.06;65.46;100501.00;5096626;28;1713;-58
2021/06/21 06:03:29;;;;;;;;;;;;;;;17.20;65.20;100499.63;5097452;28;927;-59
2021/06/21 06:05:55;;;;;;;;;;;;;;;17.02;66.03;100508.53;5096849;28;1955;-58
2021/06/21 06:08:20;;;;;;;;;;;;;;;16.67;67.60;100513.75;5097376;28;843;-58
2021/06/21 06:10:45;;;;;;;;;;;;;;;16.69;67.08;100519.84;5096726;28;2016;-58
2021/06/21 06:13:11;;;;;;;;;;;;;;;16.52;67.97;100523.28;5096988;28;1448;-58
2021/06/21 06:15:36;;;;;;;;;;;;;;;16.96;65.86;100521.75;5097268;28;871;-59
2021/06/21 06:18:01;;;;;;;;;;;;;;;16.79;66.39;100531.44;5096665;28;1999;-59
2021/06/21 06:20:26;;;;;;;;;;;;;;;16.83;66.82;100530.16;5096931;28;957;-59
2021/06/21 06:22:51;;;;;;;;;;;;;;;17.08;65.33;100538.53;5097023;28;873;-59
2021/06/21 06:25:17;;;;;;;;;;;;;;;17.27;65.43;100542.00;5097238;28;1979;-59
2021/06/21 06:27:42;;;;;;;;;;;;;;;17.38;64.29;100540.09;5096533;28;872;-58
2021/06/21 06:30:07;;;;;;;;;;;;;;;17.41;64.50;100537.09;5096134;28;1911;-58
2021/06/21 06:32:34;;;;;;;;;;;;;;;17.21;65.12;100550.66;5096364;28;924;-59
2021/06/21 06:34:59;;;;;;;;;;;;;;;17.41;64.73;100562.19;5096619;28;806;-58
2021/06/21 06:37:24;;;;;;;;;;;;;;;17.55;64.33;100553.63;5096597;28;1052;-59
2021/06/21 06:39:50;;;;;;;;;;;;;;;17.39;64.26;100561.47;5096516;28;960;-59
2021/06/21 06:42:15;;;;;;;;;;;;;;;16.90;66.03;100568.94;5096669;28;1549;-58
2021/06/21 06:44:40;;;;;;;;;;;;;;;16.85;66.00;100568.53;5096303;28;1905;-58
2021/06/21 06:47:06;;;;;;;;;;;;;;;16.81;66.32;100575.22;5096139;28;849;-58
2021/06/21 06:49:31;;;;;;;;;;;;;;;16.85;66.55;100575.75;5095976;28;1909;-58
2021/06/21 06:51:56;;;;;;;;;;;;;;;17.14;65.60;100581.03;5096164;28;1865;-57
2021/06/21 06:54:25;;;;;;;;;;;;;;;17.46;64.12;100578.75;5096273;28;845;-58
2021/06/21 06:56:59;;;;;;;;;;;;;;;17.64;63.94;100589.59;5096325;28;936;-58
2021/06/21 06:59:25;;;;;;;;;;;;;;;17.21;64.78;100595.59;5095846;28;845;-58
2021/06/21 07:01:50;;;;;;;;;;;;;;;17.78;63.43;100586.38;5095743;28;1617;-59
2021/06/21 07:04:15;;;;;;;;;;;;;;;17.58;63.69;100599.09;5095701;28;1964;-59
2021/06/21 07:06:40;;;;;;;;;;;;;;;17.65;63.22;100600.22;5095876;28;1070;-60
2021/06/21 07:09:05;;;;;;;;;;;;;;;17.39;64.08;100592.94;5095914;28;2043;-59
2021/06/21 07:11:35;;;;;;;;;;;;;;;17.00;65.46;100599.38;5094798;28;936;-61
2021/06/21 07:14:00;;;;;;;;;;;;;;;17.19;65.23;100603.00;5095307;28;1499;-58
2021/06/21 07:16:25;;;;;;;;;;;;;;;16.99;64.85;100595.00;5095755;28;905;-59
2021/06/21 07:18:50;;;;;;;;;;;;;;;17.47;63.90;100593.91;5095725;28;870;-59
2021/06/21 07:21:15;;;;;;;;;;;;;;;17.13;64.49;100596.34;5095637;28;1012;-59
2021/06/21 07:23:40;;;;;;;;;;;;;;;16.89;65.79;100594.16;5095219;28;1056;-58
2021/06/21 07:26:06;;;;;;;;;;;;;;;16.97;65.25;100602.34;5094763;28;1980;-62
2021/06/21 07:28:31;;;;;;;;;;;;;;;17.17;65.31;100592.38;5077074;28;1874;-58
2021/06/21 07:30:56;;;;;;;;;;;;;;;17.51;63.54;100610.63;5094142;28;1644;-58
2021/06/21 07:33:21;;;;;;;;;;;;;;;17.45;63.82;100608.53;5094935;28;1776;-60
2021/06/21 07:35:46;;;;;;;;;;;;;;;17.57;63.90;100613.56;5094960;28;791;-59
2021/06/21 07:38:11;;;;;;;;;;;;;;;17.52;64.05;100620.41;5094859;28;1954;-59
2021/06/21 07:40:36;;;;;;;;;;;;;;;17.55;63.80;100617.44;5095409;28;949;-59
2021/06/21 07:43:01;;;;;;;;;;;;;;;17.56;63.93;100617.25;5095335;28;984;-59
2021/06/21 07:45:27;;;;;;;;;;;;;;;17.64;63.49;100619.25;5094819;28;1937;-59
2021/06/21 07:47:54;;;;;;;;;;;;;;;17.68;63.20;100617.94;5094877;28;810;-59
2021/06/21 07:50:19;;;;;;;;;;;;;;;18.09;61.91;100616.53;5095314;28;1594;-59
2021/06/21 07:52:44;;;;;;;;;;;;;;;17.77;63.52;100624.25;5095134;28;960;-59
2021/06/21 07:55:09;;;;;;;;;;;;;;;17.33;64.39;100624.06;5094700;28;838;-59
2021/06/21 07:57:34;;;;;;;;;;;;;;;17.51;64.23;100632.19;5095012;28;2011;-59
2021/06/21 07:59:59;;;;;;;;;;;;;;;17.53;63.83;100628.34;5095337;28;933;-58
2021/06/21 08:02:24;;;;;;;;;;;;;;;17.24;64.96;100630.31;5094892;28;1708;-58
2021/06/21 08:04:50;;;;;;;;;;;;;;;17.50;63.85;100631.34;5094891;28;1898;-59
2021/06/21 08:07:15;;;;;;;;;;;;;;;17.52;63.72;100640.13;5094704;28;963;-59
2021/06/21 08:09:40;;;;;;;;;;;;;;;17.09;65.26;100639.88;5094882;28;1052;-59
2021/06/21 08:12:06;;;;;;;;;;;;;;;17.14;65.20;100651.06;5094737;28;1588;-58
2021/06/21 08:14:31;;;;;;;;;;;;;;;16.88;66.16;100640.91;5095012;28;864;-59
2021/06/21 08:16:56;;;;;;;;;;;;;;;17.20;64.89;100650.44;5094643;28;846;-59
2021/06/21 08:19:21;;;;;;;;;;;;;;;17.66;63.70;100658.53;5094696;28;854;-58
2021/06/21 08:21:46;;;;;;;;;;;;;;;17.32;64.81;100665.44;5094504;28;823;-58
2021/06/21 08:24:11;;;;;;;;;;;;;;;17.32;65.05;100665.44;5097588;28;1906;-58
2021/06/21 08:26:36;;;;;;;;;;;;;;;17.77;63.51;100664.69;5098190;28;1882;-59
2021/06/21 08:29:01;;;;;;;;;;;;;;;17.47;64.45;100661.28;5099050;28;759;-57
2021/06/21 08:31:26;;;;;;;;;;;;;;;17.82;63.48;100663.25;5099235;28;846;-58
2021/06/21 08:33:53;;;;;;;;;;;;;;;18.10;62.33;100661.38;5098993;28;1052;-58
2021/06/21 08:36:18;;;;;;;;;;;;;;;18.26;62.04;100658.84;5098434;28;1761;-58
2021/06/21 08:38:43;;;;;;;;;;;;;;;18.17;62.42;100654.38;5099373;28;2086;-59
2021/06/21 08:41:11;;;;;;;;;;;;;;;18.09;62.96;100661.53;5098913;28;1718;-59
2021/06/21 08:43:37;;;;;;;;;;;;;;;18.06;62.83;100668.09;5099136;28;841;-58
2021/06/21 08:46:02;;;;;;;;;;;;;;;18.22;62.22;100659.31;5098718;28;1953;-57
2021/06/21 08:48:27;;;;;;;;;;;;;;;18.12;62.75;100659.38;5098080;28;1839;-58
2021/06/21 08:50:52;;;;;;;;;;;;;;;18.15;62.49;100664.47;5098635;28;1000;-58
2021/06/21 08:53:17;;;;;;;;;;;;;;;17.95;63.28;100670.97;5098783;28;1032;-58
2021/06/21 08:55:44;;;;;;;;;;;;;;;18.05;62.65;100679.88;5097230;28;933;-58
2021/06/21 08:58:09;;;;;;;;;;;;;;;18.21;62.50;100671.94;5098041;28;1771;-58
2021/06/21 09:00:35;;;;;;;;;;;;;;;18.30;62.20;100675.56;5098517;28;1808;-58
2021/06/21 09:03:01;;;;;;;;;;;;;;;18.39;61.92;100678.19;5098607;28;928;-58
2021/06/21 09:05:26;;;;;;;;;;;;;;;17.78;63.54;100687.97;5098311;28;1961;-58
2021/06/21 09:07:51;;;;;;;;;;;;;;;18.04;63.05;100689.81;5097828;28;1938;-59
2021/06/21 09:10:16;;;;;;;;;;;;;;;18.24;62.58;100682.44;5097818;28;808;-59
2021/06/21 09:12:41;;;;;;;;;;;;;;;18.13;62.72;100692.56;5097903;28;1236;-58
2021/06/21 09:15:06;;;;;;;;;;;;;;;18.29;62.19;100682.81;5097655;28;964;-59
2021/06/21 09:17:31;;;;;;;;;;;;;;;18.23;62.85;100704.16;5097502;28;1927;-59
2021/06/21 09:19:57;;;;;;;;;;;;;;;18.05;63.05;100701.44;5097698;28;1075;-58
2021/06/21 09:22:22;;;;;;;;;;;;;;;18.04;62.66;100702.44;5097512;28;901;-58
2021/06/21 09:24:47;;;;;;;;;;;;;;;17.91;63.23;100712.75;5097714;28;1906;-58
2021/06/21 09:27:12;;;;;;;;;;;;;;;18.00;63.39;100712.69;5097933;28;754;-58
2021/06/21 09:29:37;;;;;;;;;;;;;;;17.92;63.52;100722.50;5097687;28;2094;-59
2021/06/21 09:32:03;;;;;;;;;;;;;;;18.04;63.30;100726.72;5097799;28;1520;-58
2021/06/21 09:34:28;;;;;;;;;;;;;;;18.11;62.80;100725.09;5097039;28;822;-58
2021/06/21 09:36:53;;;;;;;;;;;;;;;18.15;62.60;100725.63;5096663;28;1865;-60
2021/06/21 09:39:18;;;;;;;;;;;;;;;18.31;62.63;100731.22;5097466;28;783;-59
2021/06/21 09:41:43;;;;;;;;;;;;;;;18.28;62.55;100729.66;5097236;28;918;-59
2021/06/21 09:44:08;;;;;;;;;;;;;;;18.29;62.55;100739.47;5097588;28;1957;-58
2021/06/21 09:46:33;;;;;;;;;;;;;;;18.20;62.61;100743.06;5096776;28;1885;-59
2021/06/21 09:48:58;;;;;;;;;;;;;;;18.16;62.67;100751.63;5097459;28;1004;-59
2021/06/21 09:51:24;;;;;;;;;;;;;;;18.21;62.82;100754.72;5097372;28;1076;-59
2021/06/21 09:53:49;;;;;;;;;;;;;;;18.18;62.94;100752.31;5097485;28;801;-59
2021/06/21 09:56:14;;;;;;;;;;;;;;;17.89;63.70;100755.19;5097074;28;1967;-59
2021/06/21 09:58:39;;;;;;;;;;;;;;;17.84;63.87;100752.06;5097585;28;861;-59
2021/06/21 10:01:04;;;;;;;;;;;;;;;18.12;63.15;100761.00;5097140;28;1016;-58
2021/06/21 10:03:29;;;;;;;;;;;;;;;18.00;63.71;100755.81;5095478;28;1798;-58
2021/06/21 10:05:54;;;;;;;;;;;;;;;18.04;63.46;100764.47;5095445;28;1946;-59
2021/06/21 10:08:19;;;;;;;;;;;;;;;18.11;63.19;100762.84;5096313;28;1963;-59
2021/06/21 10:10:44;;;;;;;;;;;;;;;17.92;64.07;100762.94;5095360;28;1719;-59
2021/06/21 10:13:09;;;;;;;;;;;;;;;17.73;64.63;100763.06;5096509;28;2323;-59
2021/06/21 10:15:35;;;;;;;;;;;;;;;17.93;64.20;100767.34;5096328;28;2062;-59
2021/06/21 10:18:00;;;;;;;;;;;;;;;17.97;63.77;100768.75;5095577;28;1933;-59
2021/06/21 10:20:25;;;;;;;;;;;;;;;17.58;64.85;100768.84;5096466;28;2301;-59
2021/06/21 10:22:50;;;;;;;;;;;;;;;17.26;66.24;100769.22;5096818;28;802;-59
2021/06/21 10:25:15;;;;;;;;;;;;;;;17.39;65.98;100763.50;5096427;28;1987;-59
2021/06/21 10:27:40;;;;;;;;;;;;;;;17.31;65.67;100761.56;5096897;28;1933;-58
2021/06/21 10:30:05;;;;;;;;;;;;;;;17.09;66.94;100761.88;5095872;28;2350;-58
2021/06/21 10:32:30;;;;;;;;;;;;;;;16.84;67.19;100765.16;5096860;28;898;-58
2021/06/21 10:34:56;;;;;;;;;;;;;;;17.37;66.19;100760.16;5091883;28;1963;-59
2021/06/21 10:37:21;;;;;;;;;;;;;;;17.08;66.66;100753.94;5095855;28;1912;-59
2021/06/21 10:39:47;;;;;;;;;;;;;;;17.45;66.10;100754.84;5091818;28;1980;-58
2021/06/21 10:42:12;;;;;;;;;;;;;;;17.61;65.74;100757.78;5095789;28;2046;-58
2021/06/21 10:44:37;;;;;;;;;;;;;;;17.38;66.18;100761.00;5095461;28;1969;-59
2021/06/21 10:47:02;;;;;;;;;;;;;;;17.76;65.26;100770.81;5094464;28;1714;-60
2021/06/21 10:49:27;;;;;;;;;;;;;;;17.88;64.67;100772.34;5096229;28;2217;-59
2021/06/21 10:51:52;;;;;;;;;;;;;;;17.94;64.72;100779.81;5095525;28;1936;-59
2021/06/21 10:54:17;;;;;;;;;;;;;;;18.00;64.77;100782.78;5095629;28;1861;-59
2021/06/21 10:56:43;;;;;;;;;;;;;;;18.08;66.43;100775.81;5095701;28;2083;-59
2021/06/21 10:59:08;;;;;;;;;;;;;;;18.01;65.82;100787.19;5095360;28;1929;-59
2021/06/21 11:01:34;;;;;;;;;;;;;;;18.07;65.73;100784.91;5094744;28;1796;-59
2021/06/21 11:03:59;;;;;;;;;;;;;;;18.19;65.32;100789.94;5095281;28;2069;-59
2021/06/21 11:06:24;;;;;;;;;;;;;;;17.96;65.33;100785.91;5093366;28;2076;-59
2021/06/21 11:08:57;;;;;;;;;;;;;;;18.12;64.85;100788.81;5095499;28;1997;-59
2021/06/21 11:11:22;;;;;;;;;;;;;;;17.94;65.54;100788.75;5094832;28;2040;-59
2021/06/21 11:13:47;;;;;;;;;;;;;;;17.97;65.28;100795.72;5095256;28;1774;-60
2021/06/21 11:16:12;;;;;;;;;;;;;;;17.68;66.29;100791.28;5094751;28;2085;-59
2021/06/21 11:18:37;;;;;;;;;;;;;;;17.75;65.91;100790.69;5095357;28;1735;-59
2021/06/21 11:21:02;;;;;;;;;;;;;;;17.77;65.68;100792.22;5089341;28;1792;-59
2021/06/21 11:23:27;;;;;;;;;;;;;;;17.59;65.90;100789.41;5092587;28;2072;-59
2021/06/21 11:25:52;;;;;;;;;;;;;;;17.29;67.28;100792.34;5095014;28;2123;-58
2021/06/21 11:28:17;;;;;;;;;;;;;;;17.60;65.91;100790.28;5095089;28;1766;-59
2021/06/21 11:30:43;;;;;;;;;;;;;;;17.64;66.14;100800.66;5095444;28;2025;-59
2021/06/21 11:33:09;;;;;;;;;;;;;;;17.40;66.68;100788.63;5094823;28;2138;-59
2021/06/21 11:35:34;;;;;;;;;;;;;;;17.09;68.00;100785.25;5095011;28;1978;-59
2021/06/21 11:37:59;;;;;;;;;;;;;;;17.34;66.93;100790.06;5095242;28;1895;-58
2021/06/21 11:40:26;;;;;;;;;;;;;;;17.68;66.72;100801.22;5095726;28;1836;-58
2021/06/21 11:42:51;;;;;;;;;;;;;;;17.48;66.25;100800.38;5095316;28;2057;-59
2021/06/21 11:45:16;;;;;;;;;;;;;;;17.16;67.22;100805.25;5095682;28;1968;-60
2021/06/21 11:47:41;;;;;;;;;;;;;;;17.35;66.48;100800.69;5094770;28;1642;-59
2021/06/21 11:50:07;;;;;;;;;;;;;;;17.24;66.95;100813.44;5093810;28;1629;-59
2021/06/21 11:52:32;;;;;;;;;;;;;;;16.98;68.00;100811.34;5094538;28;1913;-59
2021/06/21 11:55:14;;;;;;;;;;;;;;;17.28;67.22;100821.09;5094298;28;1829;-59
2021/06/21 11:57:39;;;;;;;;;;;;;;;17.47;66.43;100841.78;5094230;28;1647;-60
2021/06/21 12:00:05;;;;;;;;;;;;;;;17.54;66.32;100842.06;5094231;28;1759;-59
2021/06/21 12:02:30;;;;;;;;;;;;;;;17.68;65.83;100850.56;5094226;28;1936;-60
2021/06/21 12:04:56;;;;;;;;;;;;;;;18.10;65.75;100855.53;5093491;28;1953;-58
2021/06/21 12:07:21;;;;;;;;;;;;;;;18.37;64.56;100858.28;5086264;28;1514;-60
2021/06/21 12:09:46;;;;;;;;;;;;;;;17.90;65.79;100862.03;5093614;28;1439;-58
2021/06/21 12:12:11;;;;;;;;;;;;;;;18.39;64.40;100866.22;5092665;28;1792;-60
2021/06/21 12:14:36;;;;;;;;;;;;;;;18.12;64.80;100864.34;5094370;28;1331;-58
2021/06/21 12:17:02;;;;;;;;;;;;;;;18.32;65.84;100860.56;5093946;28;1713;-57
2021/06/21 12:19:27;;;;;;;;;;;;;;;18.05;66.56;100863.25;5094336;28;1617;-58
2021/06/21 12:21:52;;;;;;;;;;;;;;;18.03;66.15;100867.94;5088037;28;1753;-59
2021/06/21 12:24:17;;;;;;;;;;;;;;;18.10;66.37;100863.63;5094846;28;1913;-59
2021/06/21 12:26:43;;;;;;;;;;;;;;;18.14;66.32;100873.13;5094979;28;917;-59
2021/06/21 12:29:08;;;;;;;;;;;;;;;17.91;66.58;100874.50;5095079;28;1939;-59
2021/06/21 12:31:33;;;;;;;;;;;;;;;17.91;66.56;100874.50;5094844;28;980;-58
2021/06/21 12:33:58;;;;;;;;;;;;;;;17.68;66.75;100882.91;5095105;28;837;-58
2021/06/21 12:36:29;;;;;;;;;;;;;;;17.34;67.38;100885.19;5095109;28;1000;-58
2021/06/21 12:38:54;;;;;;;;;;;;;;;17.30;67.69;100885.63;5094284;28;1935;-57